Time;durP1;ratioP1;P1;durP2;ratioP2;P2;SDS_P1;SDS_P2;PMS_P1;PMS_P2;Temp;Humidity;BMP_temperature;BMP_pressure;BME280_temperature;BME280_humidity;BME280_pressure;Samples;Min_cycle;Max_cycle;Signal;HPM_P1;HPM_P2
2021/11/15 00:00:24;;;;;;;59.80;35.40;;;;;;;;;;5053472;28;20033;-72
2021/11/15 00:02:50;;;;;;;60.42;34.15;;;;;;;;;;5035567;28;20148;-72
2021/11/15 00:05:15;;;;;;;57.25;33.30;;;;;;;;;;5053179;28;20033;-72
2021/11/15 00:07:41;;;;;;;62.15;34.22;;;;;;;;;;5053039;28;20043;-72
2021/11/15 00:10:07;;;;;;;60.72;32.90;;;;;;;;;;5053157;28;20052;-72
2021/11/15 00:12:33;;;;;;;65.70;34.72;;;;;;;;;;5053182;28;20480;-72
2021/11/15 00:14:59;;;;;;;60.10;32.58;;;;;;;;;;5055910;28;20044;-72
2021/11/15 00:17:24;;;;;;;60.20;34.28;;;;;;;;;;5057353;28;20032;-72
2021/11/15 00:19:50;;;;;;;58.78;33.10;;;;;;;;;;5057230;28;20029;-72
2021/11/15 00:22:15;;;;;;;58.13;32.53;;;;;;;;;;5057037;28;20163;-72
2021/11/15 00:24:42;;;;;;;59.20;32.53;;;;;;;;;;5056811;28;20068;-72
2021/11/15 00:27:08;;;;;;;59.63;33.72;;;;;;;;;;5056806;28;20116;-72
2021/11/15 00:29:33;;;;;;;56.65;32.15;;;;;;;;;;5038743;28;20184;-71
2021/11/15 00:31:58;;;;;;;59.75;32.88;;;;;;;;;;5057099;28;20037;-72
2021/11/15 00:34:25;;;;;;;60.85;33.67;;;;;;;;;;5056782;28;20396;-72
2021/11/15 00:36:50;;;;;;;58.42;33.00;;;;;;;;;;5056904;28;20040;-71
2021/11/15 00:39:17;;;;;;;59.35;31.63;;;;;;;;;;5056915;28;20389;-70
2021/11/15 00:41:44;;;;;;;56.70;32.90;;;;;;;;;;5022343;28;20039;-70
2021/11/15 00:44:10;;;;;;;61.72;32.92;;;;;;;;;;5057142;28;20045;-70
2021/11/15 00:46:35;;;;;;;55.72;33.30;;;;;;;;;;5056872;28;20025;-70
2021/11/15 00:49:01;;;;;;;64.03;34.55;;;;;;;;;;5038932;28;20403;-70
2021/11/15 00:51:27;;;;;;;62.15;35.80;;;;;;;;;;5038666;28;20037;-70
2021/11/15 00:53:54;;;;;;;59.40;33.88;;;;;;;;;;5056314;28;20488;-72
2021/11/15 00:56:20;;;;;;;58.33;31.67;;;;;;;;;;5038517;28;20029;-72
2021/11/15 00:58:46;;;;;;;58.28;30.88;;;;;;;;;;5056392;28;20029;-71
2021/11/15 01:01:12;;;;;;;55.30;31.10;;;;;;;;;;5056180;28;20384;-71
2021/11/15 01:03:38;;;;;;;60.83;32.35;;;;;;;;;;5056241;28;20041;-71
2021/11/15 01:06:03;;;;;;;58.47;33.40;;;;;;;;;;5038704;28;20044;-70
2021/11/15 01:08:29;;;;;;;53.15;28.65;;;;;;;;;;5038201;28;20037;-70
2021/11/15 01:10:54;;;;;;;58.30;32.67;;;;;;;;;;5056192;28;20021;-70
2021/11/15 01:13:23;;;;;;;53.95;30.85;;;;;;;;;;5038039;28;20045;-70
2021/11/15 01:15:49;;;;;;;55.08;31.50;;;;;;;;;;5056033;28;20342;-71
2021/11/15 01:18:15;;;;;;;54.22;31.33;;;;;;;;;;5055995;28;20052;-70
2021/11/15 01:20:40;;;;;;;55.80;29.40;;;;;;;;;;5056198;28;20102;-72
2021/11/15 01:23:06;;;;;;;54.75;32.40;;;;;;;;;;5056026;28;20048;-72
2021/11/15 01:25:33;;;;;;;58.05;31.48;;;;;;;;;;5054358;28;20530;-72
2021/11/15 01:27:59;;;;;;;54.80;29.23;;;;;;;;;;5055615;28;20033;-72
2021/11/15 01:30:24;;;;;;;49.53;28.13;;;;;;;;;;5038231;28;20469;-71
2021/11/15 01:32:50;;;;;;;56.05;29.38;;;;;;;;;;5037461;28;20045;-71
2021/11/15 01:35:17;;;;;;;50.45;28.45;;;;;;;;;;5055829;28;20036;-71
2021/11/15 01:37:43;;;;;;;45.22;26.40;;;;;;;;;;5055714;28;20061;-71
2021/11/15 01:40:10;;;;;;;43.30;24.80;;;;;;;;;;5037723;28;20444;-71
2021/11/15 01:42:36;;;;;;;45.35;26.38;;;;;;;;;;5055587;28;20124;-72
2021/11/15 01:45:02;;;;;;;44.25;25.30;;;;;;;;;;5055416;28;20112;-72
2021/11/15 01:47:28;;;;;;;43.88;25.83;;;;;;;;;;5055384;28;20033;-71
2021/11/15 01:49:54;;;;;;;43.28;24.30;;;;;;;;;;5055325;28;20054;-72
2021/11/15 01:52:20;;;;;;;46.33;26.77;;;;;;;;;;5037278;28;20044;-72
2021/11/15 01:54:45;;;;;;;40.45;24.75;;;;;;;;;;5037192;28;20037;-72
2021/11/15 01:57:13;;;;;;;40.75;25.85;;;;;;;;;;5055137;28;20036;-72
2021/11/15 01:59:38;;;;;;;46.70;27.30;;;;;;;;;;5037847;28;20029;-72
2021/11/15 02:02:04;;;;;;;39.33;23.60;;;;;;;;;;5055118;28;20073;-72
2021/11/15 02:04:30;;;;;;;41.28;24.85;;;;;;;;;;5037134;28;20044;-72
2021/11/15 02:06:56;;;;;;;43.75;26.95;;;;;;;;;;5055034;28;20037;-72
2021/11/15 02:09:21;;;;;;;42.95;26.23;;;;;;;;;;5054906;28;20033;-72
2021/11/15 02:11:48;;;;;;;40.35;24.33;;;;;;;;;;5055263;28;20039;-72
2021/11/15 02:14:13;;;;;;;41.92;24.88;;;;;;;;;;5054973;28;20033;-71
2021/11/15 02:16:39;;;;;;;39.60;23.70;;;;;;;;;;5037085;28;20175;-71
2021/11/15 02:19:04;;;;;;;39.78;23.88;;;;;;;;;;5054644;28;20543;-70
2021/11/15 02:21:30;;;;;;;44.03;26.60;;;;;;;;;;5054026;28;20037;-71
2021/11/15 02:23:55;;;;;;;40.10;24.23;;;;;;;;;;5054707;28;20037;-71
2021/11/15 02:26:23;;;;;;;40.65;26.35;;;;;;;;;;5054415;28;20037;-70
2021/11/15 02:28:50;;;;;;;40.33;25.00;;;;;;;;;;5055038;28;20175;-70
2021/11/15 02:31:16;;;;;;;38.85;24.33;;;;;;;;;;5054211;28;20611;-70
2021/11/15 02:33:42;;;;;;;38.30;23.95;;;;;;;;;;5054142;28;20053;-70
2021/11/15 02:36:08;;;;;;;39.17;23.55;;;;;;;;;;5054510;28;20033;-70
2021/11/15 02:38:35;;;;;;;39.13;25.15;;;;;;;;;;5054141;28;20032;-70
2021/11/15 02:41:00;;;;;;;38.22;24.40;;;;;;;;;;5054316;28;20033;-70
2021/11/15 02:43:26;;;;;;;36.28;23.10;;;;;;;;;;5054537;28;20407;-71
2021/11/15 02:45:52;;;;;;;38.10;25.00;;;;;;;;;;5054520;28;20560;-72
2021/11/15 02:48:18;;;;;;;36.40;23.40;;;;;;;;;;5054188;28;20476;-72
2021/11/15 02:50:43;;;;;;;38.03;22.27;;;;;;;;;;5054389;28;20488;-72
2021/11/15 02:53:09;;;;;;;35.47;22.55;;;;;;;;;;5054154;28;20025;-72
2021/11/15 02:55:35;;;;;;;37.50;22.77;;;;;;;;;;5054427;28;20060;-72
2021/11/15 02:58:04;;;;;;;36.10;22.40;;;;;;;;;;5054240;28;20021;-72
2021/11/15 03:00:29;;;;;;;33.83;22.27;;;;;;;;;;5054566;28;20437;-72
2021/11/15 03:02:56;;;;;;;37.00;21.98;;;;;;;;;;5054050;28;20067;-72
2021/11/15 03:05:22;;;;;;;34.97;22.08;;;;;;;;;;5054087;28;20040;-72
2021/11/15 03:07:48;;;;;;;34.10;22.50;;;;;;;;;;5053947;28;20033;-71
2021/11/15 03:10:13;;;;;;;34.08;21.45;;;;;;;;;;5053862;28;20047;-72
2021/11/15 03:12:39;;;;;;;32.10;22.42;;;;;;;;;;5053742;28;20116;-71
2021/11/15 03:15:06;;;;;;;34.45;22.30;;;;;;;;;;5053591;28;20385;-71
2021/11/15 03:17:31;;;;;;;32.17;20.60;;;;;;;;;;5054034;28;20033;-72
2021/11/15 03:20:00;;;;;;;34.90;22.85;;;;;;;;;;5035822;28;20033;-72
2021/11/15 03:22:28;;;;;;;35.22;22.35;;;;;;;;;;5035644;28;20488;-72
2021/11/15 03:24:54;;;;;;;34.28;22.35;;;;;;;;;;5035941;28;20485;-72
2021/11/15 03:27:19;;;;;;;36.25;23.00;;;;;;;;;;5053445;28;20037;-73
2021/11/15 03:29:45;;;;;;;34.58;21.75;;;;;;;;;;5052789;28;20032;-72
2021/11/15 03:32:12;;;;;;;34.05;22.88;;;;;;;;;;5053357;28;20420;-72
2021/11/15 03:34:38;;;;;;;34.80;21.65;;;;;;;;;;5053431;28;20473;-71
2021/11/15 03:37:03;;;;;;;35.03;21.85;;;;;;;;;;5053378;28;20116;-72
2021/11/15 03:39:30;;;;;;;35.40;21.70;;;;;;;;;;5053257;28;20552;-72
2021/11/15 03:41:55;;;;;;;34.55;21.75;;;;;;;;;;5053419;28;20021;-72
2021/11/15 03:44:21;;;;;;;36.13;23.45;;;;;;;;;;5053486;28;20045;-72
2021/11/15 03:46:46;;;;;;;29.58;19.77;;;;;;;;;;5053331;28;20025;-72
2021/11/15 03:49:15;;;;;;;28.85;19.60;;;;;;;;;;5034900;28;20396;-72
2021/11/15 03:51:41;;;;;;;30.77;19.70;;;;;;;;;;5053518;28;20029;-72
2021/11/15 03:54:07;;;;;;;31.58;20.40;;;;;;;;;;5053049;28;20044;-72
2021/11/15 03:56:33;;;;;;;29.17;20.08;;;;;;;;;;5053026;28;20024;-72
2021/11/15 03:58:59;;;;;;;31.75;20.95;;;;;;;;;;5053115;28;20092;-72
2021/11/15 04:01:28;;;;;;;32.38;19.73;;;;;;;;;;5053173;28;20496;-72
2021/11/15 04:03:59;;;;;;;32.67;22.00;;;;;;;;;;5053221;28;20039;-72
2021/11/15 04:06:25;;;;;;;;;;;;;;;;;;5053787;28;20039;-71
2021/11/15 04:08:52;;;;;;;31.20;20.05;;;;;;;;;;5052842;28;20275;-71
2021/11/15 04:11:19;;;;;;;33.25;20.65;;;;;;;;;;5035114;28;20045;-72
2021/11/15 04:13:46;;;;;;;32.90;20.00;;;;;;;;;;5052776;28;20103;-72
2021/11/15 04:16:12;;;;;;;32.65;20.13;;;;;;;;;;5052889;28;20037;-72
2021/11/15 04:18:41;;;;;;;32.28;20.95;;;;;;;;;;5053048;28;20029;-71
2021/11/15 04:21:07;;;;;;;33.08;21.10;;;;;;;;;;5053081;28;20037;-72
2021/11/15 04:23:33;;;;;;;32.20;20.05;;;;;;;;;;5053077;28;20032;-72
2021/11/15 04:25:58;;;;;;;32.72;20.88;;;;;;;;;;5053204;28;20119;-72
2021/11/15 04:28:25;;;;;;;33.42;21.55;;;;;;;;;;5035049;28;20151;-71
2021/11/15 04:30:50;;;;;;;34.47;21.02;;;;;;;;;;5052781;28;20029;-71
2021/11/15 04:33:16;;;;;;;29.85;18.80;;;;;;;;;;5052062;28;20405;-72
2021/11/15 04:35:42;;;;;;;31.85;20.90;;;;;;;;;;5053074;28;20176;-72
2021/11/15 04:38:07;;;;;;;33.13;20.20;;;;;;;;;;5052572;28;20037;-72
2021/11/15 04:40:33;;;;;;;33.17;20.00;;;;;;;;;;5052533;28;20025;-72
2021/11/15 04:42:59;;;;;;;34.92;22.45;;;;;;;;;;5052447;28;20029;-72
2021/11/15 04:45:25;;;;;;;33.15;21.15;;;;;;;;;;5034610;28;20095;-72
2021/11/15 04:47:50;;;;;;;33.13;19.10;;;;;;;;;;5034702;28;20036;-72
2021/11/15 04:50:16;;;;;;;37.08;21.80;;;;;;;;;;5052446;28;20128;-72
2021/11/15 04:52:42;;;;;;;33.55;21.00;;;;;;;;;;5034780;28;20029;-72
2021/11/15 04:55:08;;;;;;;31.00;19.83;;;;;;;;;;5052419;28;20044;-72
2021/11/15 04:57:34;;;;;;;30.60;19.25;;;;;;;;;;5034778;28;20519;-72
2021/11/15 05:00:00;;;;;;;34.20;20.25;;;;;;;;;;5053320;28;20041;-72
2021/11/15 05:02:26;;;;;;;33.08;21.05;;;;;;;;;;5056244;28;20087;-65
2021/11/15 05:04:52;;;;;;;32.67;19.70;;;;;;;;;;5055980;28;20091;-72
2021/11/15 05:07:17;;;;;;;31.90;19.65;;;;;;;;;;5056017;28;20435;-72
2021/11/15 05:09:43;;;;;;;29.55;18.90;;;;;;;;;;5055808;28;20045;-71
2021/11/15 05:12:08;;;;;;;31.65;19.85;;;;;;;;;;5056036;28;20036;-72
2021/11/15 05:14:34;;;;;;;31.42;20.02;;;;;;;;;;5038142;28;20045;-72
2021/11/15 05:16:59;;;;;;;33.33;18.92;;;;;;;;;;5056279;28;20025;-72
2021/11/15 05:19:25;;;;;;;32.00;21.30;;;;;;;;;;5055862;28;20037;-72
2021/11/15 05:21:50;;;;;;;43.20;30.83;;;;;;;;;;5055156;28;20025;-71
2021/11/15 05:24:16;;;;;;;38.70;27.40;;;;;;;;;;5055444;28;20048;-72
2021/11/15 05:26:41;;;;;;;34.05;21.95;;;;;;;;;;5054835;28;20033;-71
2021/11/15 05:29:07;;;;;;;38.80;27.60;;;;;;;;;;5055690;28;20040;-71
2021/11/15 05:31:34;;;;;;;34.22;22.35;;;;;;;;;;5055679;28;20484;-71
2021/11/15 05:34:00;;;;;;;31.52;20.52;;;;;;;;;;5055185;28;20053;-72
2021/11/15 05:36:26;;;;;;;32.30;18.98;;;;;;;;;;5055450;28;20021;-72
2021/11/15 05:38:51;;;;;;;29.92;19.02;;;;;;;;;;5055450;28;20040;-71
2021/11/15 05:41:17;;;;;;;33.10;21.45;;;;;;;;;;5055383;28;20112;-72
2021/11/15 05:43:42;;;;;;;33.85;21.58;;;;;;;;;;5055374;28;20047;-72
2021/11/15 05:46:07;;;;;;;32.58;22.33;;;;;;;;;;5055340;28;20068;-72
2021/11/15 05:48:33;;;;;;;36.83;21.50;;;;;;;;;;5037299;28;20568;-72
2021/11/15 05:50:58;;;;;;;30.45;18.70;;;;;;;;;;5055202;28;20025;-72
2021/11/15 05:53:24;;;;;;;30.88;20.23;;;;;;;;;;5055193;28;20029;-71
2021/11/15 05:55:50;;;;;;;36.30;21.60;;;;;;;;;;5055110;28;20025;-72
2021/11/15 05:58:15;;;;;;;34.42;20.65;;;;;;;;;;5055161;28;20044;-72
2021/11/15 06:00:41;;;;;;;35.17;21.25;;;;;;;;;;5054956;28;20040;-72
2021/11/15 06:03:07;;;;;;;33.13;19.33;;;;;;;;;;5037143;28;20044;-72
2021/11/15 06:05:33;;;;;;;33.28;20.52;;;;;;;;;;5054665;28;20488;-72
2021/11/15 06:07:58;;;;;;;32.38;19.80;;;;;;;;;;5055082;28;20033;-72
2021/11/15 06:10:23;;;;;;;32.40;20.00;;;;;;;;;;5054850;28;20090;-72
2021/11/15 06:12:50;;;;;;;37.42;20.33;;;;;;;;;;5054355;28;20048;-72
2021/11/15 06:15:16;;;;;;;33.80;20.95;;;;;;;;;;5054625;28;20041;-71
2021/11/15 06:17:42;;;;;;;37.00;22.52;;;;;;;;;;5054812;28;20037;-72
2021/11/15 06:20:08;;;;;;;33.15;22.75;;;;;;;;;;5054660;28;20033;-71
2021/11/15 06:22:34;;;;;;;35.38;23.10;;;;;;;;;;5054548;28;20069;-71
2021/11/15 06:24:59;;;;;;;35.97;22.42;;;;;;;;;;5054619;28;20060;-71
2021/11/15 06:27:25;;;;;;;38.92;23.90;;;;;;;;;;5054506;28;20033;-71
2021/11/15 06:29:50;;;;;;;39.35;23.85;;;;;;;;;;5054502;28;20469;-71
2021/11/15 06:32:16;;;;;;;40.53;22.15;;;;;;;;;;5054115;28;20103;-72
2021/11/15 06:34:42;;;;;;;37.78;20.38;;;;;;;;;;5054438;28;20555;-71
2021/11/15 06:37:08;;;;;;;38.47;24.45;;;;;;;;;;5036578;28;20074;-71
2021/11/15 06:39:34;;;;;;;39.50;24.10;;;;;;;;;;5054380;28;20080;-71
2021/11/15 06:42:00;;;;;;;44.60;27.48;;;;;;;;;;5054327;28;20033;-72
2021/11/15 06:44:26;;;;;;;43.28;24.67;;;;;;;;;;5054279;28;20036;-71
2021/11/15 06:46:52;;;;;;;44.47;26.05;;;;;;;;;;5054257;28;20078;-72
2021/11/15 06:49:18;;;;;;;43.22;25.48;;;;;;;;;;5054194;28;20386;-71
2021/11/15 06:51:45;;;;;;;41.80;25.08;;;;;;;;;;5053967;28;20119;-71
2021/11/15 06:54:10;;;;;;;37.83;24.00;;;;;;;;;;5054212;28;20398;-71
2021/11/15 06:56:36;;;;;;;43.90;26.20;;;;;;;;;;5054112;28;20021;-71
2021/11/15 06:59:01;;;;;;;48.28;28.02;;;;;;;;;;5036192;28;20033;-71
2021/11/15 07:01:27;;;;;;;43.22;25.05;;;;;;;;;;5053975;28;20021;-71
2021/11/15 07:03:53;;;;;;;44.70;26.10;;;;;;;;;;5053895;28;20040;-71
2021/11/15 07:06:18;;;;;;;41.05;23.10;;;;;;;;;;5019398;28;20056;-71
2021/11/15 07:08:44;;;;;;;43.63;26.30;;;;;;;;;;5053796;28;20037;-71
2021/11/15 07:11:09;;;;;;;43.90;26.05;;;;;;;;;;5053832;28;20037;-71
2021/11/15 07:13:36;;;;;;;40.38;24.30;;;;;;;;;;5053636;28;20052;-71
2021/11/15 07:16:02;;;;;;;50.03;27.83;;;;;;;;;;5053604;28;20059;-71
2021/11/15 07:18:28;;;;;;;43.08;24.05;;;;;;;;;;5053584;28;20026;-72
2021/11/15 07:20:56;;;;;;;49.92;27.52;;;;;;;;;;5053520;28;20036;-71
2021/11/15 07:23:23;;;;;;;48.58;26.15;;;;;;;;;;5052580;28;20404;-71
2021/11/15 07:25:49;;;;;;;50.63;28.15;;;;;;;;;;5053339;28;20440;-71
2021/11/15 07:28:14;;;;;;;55.22;30.52;;;;;;;;;;5053362;28;20040;-71
2021/11/15 07:30:41;;;;;;;56.88;31.85;;;;;;;;;;5053367;28;20447;-71
2021/11/15 07:33:07;;;;;;;55.30;31.35;;;;;;;;;;5034903;28;20079;-71
2021/11/15 07:35:33;;;;;;;106.30;50.58;;;;;;;;;;5053231;28;20493;-71
2021/11/15 07:37:58;;;;;;;99.72;64.15;;;;;;;;;;5035531;28;20036;-71
2021/11/15 07:40:24;;;;;;;73.55;46.20;;;;;;;;;;5053073;28;20389;-71
2021/11/15 07:42:50;;;;;;;59.67;33.67;;;;;;;;;;5053297;28;20136;-72
2021/11/15 07:45:15;;;;;;;65.85;38.50;;;;;;;;;;5053247;28;20473;-71
2021/11/15 07:47:41;;;;;;;75.20;46.45;;;;;;;;;;5053034;28;20411;-71
2021/11/15 07:50:07;;;;;;;50.40;29.58;;;;;;;;;;5053166;28;20044;-71
2021/11/15 07:52:35;;;;;;;62.83;39.60;;;;;;;;;;5052976;28;20037;-71
2021/11/15 07:55:02;;;;;;;60.63;36.45;;;;;;;;;;5035073;28;20082;-71
2021/11/15 07:57:28;;;;;;;64.20;37.80;;;;;;;;;;5052925;28;20395;-71
2021/11/15 07:59:53;;;;;;;58.45;32.70;;;;;;;;;;5052854;28;20025;-72
2021/11/15 08:02:19;;;;;;;57.00;31.30;;;;;;;;;;5052900;28;20124;-71
2021/11/15 08:04:46;;;;;;;56.03;33.38;;;;;;;;;;5053021;28;20032;-71
2021/11/15 08:07:12;;;;;;;56.67;33.15;;;;;;;;;;5052999;28;20036;-71
2021/11/15 08:09:38;;;;;;;59.60;36.20;;;;;;;;;;5052913;28;20040;-72
2021/11/15 08:12:06;;;;;;;53.58;30.25;;;;;;;;;;5052812;28;20029;-71
2021/11/15 08:14:33;;;;;;;62.00;31.50;;;;;;;;;;5052718;28;20497;-71
2021/11/15 08:16:58;;;;;;;58.63;31.23;;;;;;;;;;5052844;28;20076;-71
2021/11/15 08:19:24;;;;;;;53.17;28.35;;;;;;;;;;5052786;28;20025;-71
2021/11/15 08:21:50;;;;;;;55.83;29.77;;;;;;;;;;5052813;28;20037;-71
2021/11/15 08:24:18;;;;;;;51.10;25.42;;;;;;;;;;5052760;28;20079;-71
2021/11/15 08:26:46;;;;;;;53.95;31.55;;;;;;;;;;5052825;28;20041;-71
2021/11/15 08:29:12;;;;;;;48.22;26.45;;;;;;;;;;5052711;28;20124;-71
2021/11/15 08:31:39;;;;;;;51.00;26.63;;;;;;;;;;5052767;28;20456;-71
2021/11/15 08:34:05;;;;;;;46.67;24.40;;;;;;;;;;5052382;28;20543;-71
2021/11/15 08:36:31;;;;;;;50.70;27.40;;;;;;;;;;5056010;28;20037;-71
2021/11/15 08:38:58;;;;;;;46.15;25.38;;;;;;;;;;5038688;28;20975;-71
2021/11/15 08:41:31;;;;;;;53.97;28.00;;;;;;;;;;5056045;28;20116;-71
2021/11/15 08:43:58;;;;;;;63.30;31.58;;;;;;;;;;5056431;28;20037;-71
2021/11/15 08:46:24;;;;;;;57.38;30.85;;;;;;;;;;5038671;28;20086;-71
2021/11/15 08:48:50;;;;;;;64.18;31.92;;;;;;;;;;5056438;28;20043;-71
2021/11/15 08:51:16;;;;;;;57.67;30.98;;;;;;;;;;5056527;28;20029;-71
2021/11/15 08:53:43;;;;;;;59.88;31.85;;;;;;;;;;5056312;28;20403;-71
2021/11/15 08:56:08;;;;;;;63.83;34.00;;;;;;;;;;5038399;28;20025;-71
2021/11/15 08:58:34;;;;;;;55.75;28.70;;;;;;;;;;5056164;28;20052;-71
2021/11/15 09:00:59;;;;;;;52.25;28.98;;;;;;;;;;5056108;28;20365;-71
2021/11/15 09:03:27;;;;;;;56.78;29.38;;;;;;;;;;5056169;28;20059;-71
2021/11/15 09:05:52;;;;;;;48.67;24.38;;;;;;;;;;5056086;28;20033;-69
2021/11/15 09:08:18;;;;;;;49.65;25.80;;;;;;;;;;5038151;28;20516;-69
2021/11/15 09:10:44;;;;;;;50.30;25.15;;;;;;;;;;5056063;28;20025;-69
2021/11/15 09:13:12;;;;;;;42.15;22.80;;;;;;;;;;5056052;28;20041;-69
2021/11/15 09:15:38;;;;;;;44.72;24.17;;;;;;;;;;5055909;28;20086;-69
2021/11/15 09:18:03;;;;;;;47.17;23.30;;;;;;;;;;5055749;28;20033;-69
2021/11/15 09:20:29;;;;;;;46.78;24.60;;;;;;;;;;5055949;28;20021;-69
2021/11/15 09:22:54;;;;;;;56.03;28.45;;;;;;;;;;5038024;28;20037;-69
2021/11/15 09:25:21;;;;;;;45.95;24.55;;;;;;;;;;5055689;28;20389;-69
2021/11/15 09:27:46;;;;;;;45.90;23.48;;;;;;;;;;5055670;28;20039;-69
2021/11/15 09:30:12;;;;;;;51.63;26.52;;;;;;;;;;5055508;28;20495;-68
2021/11/15 09:32:40;;;;;;;45.00;23.38;;;;;;;;;;5055104;28;20041;-69
2021/11/15 09:35:06;;;;;;;42.08;23.00;;;;;;;;;;5055550;28;20484;-69
2021/11/15 09:37:31;;;;;;;44.08;24.17;;;;;;;;;;5037453;28;20017;-68
2021/11/15 09:39:57;;;;;;;37.95;20.92;;;;;;;;;;5055661;28;20128;-69
2021/11/15 09:42:23;;;;;;;45.78;28.17;;;;;;;;;;5055561;28;20025;-69
2021/11/15 09:44:48;;;;;;;37.38;20.92;;;;;;;;;;5055444;28;20037;-69
2021/11/15 09:47:15;;;;;;;44.65;21.83;;;;;;;;;;5036468;28;20036;-69
2021/11/15 09:49:40;;;;;;;43.17;22.42;;;;;;;;;;5055148;28;20048;-69
2021/11/15 09:52:06;;;;;;;52.53;28.25;;;;;;;;;;5037429;28;20397;-69
2021/11/15 09:54:32;;;;;;;45.38;25.15;;;;;;;;;;5055082;28;20044;-69
2021/11/15 09:56:57;;;;;;;43.88;24.63;;;;;;;;;;5055196;28;20037;-69
2021/11/15 09:59:27;;;;;;;48.63;27.13;;;;;;;;;;5055054;28;20410;-69
2021/11/15 10:01:53;;;;;;;40.75;22.75;;;;;;;;;;5055154;28;20096;-69
2021/11/15 10:04:19;;;;;;;45.67;22.92;;;;;;;;;;5055122;28;20037;-69
2021/11/15 10:06:46;;;;;;;40.78;21.88;;;;;;;;;;5037288;28;20059;-69
2021/11/15 10:09:11;;;;;;;40.67;22.08;;;;;;;;;;5037220;28;20041;-69
2021/11/15 10:11:39;;;;;;;37.83;20.95;;;;;;;;;;5054996;28;20033;-69
2021/11/15 10:14:05;;;;;;;34.78;20.60;;;;;;;;;;5054782;28;20091;-69
2021/11/15 10:16:32;;;;;;;37.28;20.23;;;;;;;;;;5054877;28;20021;-69
2021/11/15 10:19:08;;;;;;;42.92;23.90;;;;;;;;;;5054849;28;20025;-69
2021/11/15 10:21:34;;;;;;;37.70;20.05;;;;;;;;;;5054754;28;20029;-69
2021/11/15 10:24:20;;;;;;;40.95;20.08;;;;;;;;;;5054602;28;20025;-69
2021/11/15 10:26:55;;;;;;;42.65;23.67;;;;;;;;;;5036294;28;20048;-69
2021/11/15 10:29:22;;;;;;;48.83;23.67;;;;;;;;;;5054579;28;20049;-69
2021/11/15 10:31:56;;;;;;;43.72;22.67;;;;;;;;;;5036745;28;20118;-69
2021/11/15 10:34:27;;;;;;;43.53;23.65;;;;;;;;;;5036432;28;20493;-69
2021/11/15 10:36:58;;;;;;;42.30;21.35;;;;;;;;;;5054478;28;20099;-69
2021/11/15 10:39:26;;;;;;;43.70;21.85;;;;;;;;;;5054098;28;20040;-69
2021/11/15 10:42:15;;;;;;;41.85;23.20;;;;;;;;;;5036592;28;20031;-71
2021/11/15 10:44:49;;;;;;;41.20;21.65;;;;;;;;;;5043798;28;20072;-71
2021/11/15 10:47:15;;;;;;;39.15;20.70;;;;;;;;;;5054292;28;20448;-71
2021/11/15 10:49:42;;;;;;;43.40;22.98;;;;;;;;;;5054007;28;20033;-71
2021/11/15 10:52:12;;;;;;;42.95;23.20;;;;;;;;;;5054014;28;20071;-72
2021/11/15 10:54:52;;;;;;;45.22;25.30;;;;;;;;;;5053942;28;20091;-71
2021/11/15 10:57:19;;;;;;;37.17;18.97;;;;;;;;;;5054031;28;20444;-71
2021/11/15 10:59:45;;;;;;;42.22;23.48;;;;;;;;;;5053821;28;20290;-71
2021/11/15 11:02:27;;;;;;;48.10;27.38;;;;;;;;;;5053941;28;20029;-72
2021/11/15 11:05:11;;;;;;;44.17;23.52;;;;;;;;;;5053906;28;20036;-71
2021/11/15 11:07:37;;;;;;;52.13;27.02;;;;;;;;;;5036052;28;20043;-71
2021/11/15 11:10:07;;;;;;;47.95;24.05;;;;;;;;;;5053766;28;20028;-71
2021/11/15 11:12:35;;;;;;;50.00;23.38;;;;;;;;;;5053641;28;20572;-71
2021/11/15 11:15:23;;;;;;;44.88;21.83;;;;;;;;;;5053594;28;20032;-71
2021/11/15 11:18:35;;;;;;;59.72;36.85;;;;;;;;;;5053665;28;20401;-71
2021/11/15 11:26:11;;;;;;;57.15;29.10;;;;;;;;;;5053695;28;20060;-72
2021/11/15 11:28:38;;;;;;;58.78;28.40;;;;;;;;;;5053138;28;20021;-72
2021/11/15 11:31:05;;;;;;;54.55;27.20;;;;;;;;;;5053371;28;20037;-71
2021/11/15 11:33:31;;;;;;;60.38;32.65;;;;;;;;;;5052850;28;20488;-71
2021/11/15 11:36:00;;;;;;;68.25;44.75;;;;;;;;;;5035457;28;20045;-72
2021/11/15 11:38:26;;;;;;;72.82;42.50;;;;;;;;;;5019161;28;20127;-71
2021/11/15 11:40:53;;;;;;;58.97;31.17;;;;;;;;;;5053279;28;20117;-71
2021/11/15 11:43:19;;;;;;;59.20;31.17;;;;;;;;;;5053345;28;20433;-71
2021/11/15 11:45:44;;;;;;;46.17;24.70;;;;;;;;;;5035162;28;20067;-72
2021/11/15 11:48:10;;;;;;;47.78;25.08;;;;;;;;;;5053019;28;20045;-71
2021/11/15 11:50:37;;;;;;;47.22;25.50;;;;;;;;;;5053079;28;20033;-71
2021/11/15 11:53:06;;;;;;;45.65;24.83;;;;;;;;;;5053240;28;20504;-71
2021/11/15 11:55:33;;;;;;;45.40;26.97;;;;;;;;;;5053071;28;20082;-72
2021/11/15 11:58:17;;;;;;;44.17;22.25;;;;;;;;;;5052996;28;20047;-72
2021/11/15 12:00:44;;;;;;;41.53;21.33;;;;;;;;;;5053232;28;20035;-71
2021/11/15 12:03:10;;;;;;;46.65;24.48;;;;;;;;;;5053158;28;20029;-71
2021/11/15 12:05:35;;;;;;;49.53;24.20;;;;;;;;;;5053034;28;20091;-71
2021/11/15 12:08:02;;;;;;;46.67;25.25;;;;;;;;;;5052964;28;20029;-71
2021/11/15 12:10:34;;;;;;;50.13;26.25;;;;;;;;;;5052438;28;20041;-71
2021/11/15 12:13:00;;;;;;;47.95;24.35;;;;;;;;;;5052941;28;20041;-71
2021/11/15 12:15:25;;;;;;;50.78;29.13;;;;;;;;;;5052845;28;20056;-72
2021/11/15 12:17:51;;;;;;;54.67;30.10;;;;;;;;;;5052913;28;20071;-71
2021/11/15 12:20:17;;;;;;;51.08;25.95;;;;;;;;;;5052797;28;20025;-71
2021/11/15 12:22:44;;;;;;;58.08;28.48;;;;;;;;;;5052887;28;20083;-72
2021/11/15 12:25:16;;;;;;;50.78;27.45;;;;;;;;;;5052529;28;20036;-71
2021/11/15 12:27:44;;;;;;;70.95;37.05;;;;;;;;;;5052826;28;20381;-72
2021/11/15 12:30:11;;;;;;;56.30;30.10;;;;;;;;;;5052805;28;20029;-71
2021/11/15 12:32:36;;;;;;;57.60;30.88;;;;;;;;;;5051809;28;20041;-72
2021/11/15 12:35:02;;;;;;;49.25;25.65;;;;;;;;;;5052858;28;20488;-71
2021/11/15 12:37:32;;;;;;;47.30;24.27;;;;;;;;;;5034981;28;20082;-71
2021/11/15 12:39:59;;;;;;;46.33;24.15;;;;;;;;;;5052815;28;20029;-71
2021/11/15 12:42:29;;;;;;;51.58;26.60;;;;;;;;;;5052746;28;20036;-71
2021/11/15 12:45:25;;;;;;;48.65;26.85;;;;;;;;;;5052605;28;20171;-72
2021/11/15 12:47:50;;;;;;;53.40;25.30;;;;;;;;;;5035690;28;20501;-71
2021/11/15 12:50:20;;;;;;;50.53;26.65;;;;;;;;;;5052488;28;20037;-71
2021/11/15 12:52:53;;;;;;;51.72;23.55;;;;;;;;;;5052547;28;20381;-71
2021/11/15 12:55:20;;;;;;;46.88;26.70;;;;;;;;;;5052425;28;20044;-71
2021/11/15 12:57:57;;;;;;;51.22;24.50;;;;;;;;;;5052593;28;20112;-71
2021/11/15 13:00:28;;;;;;;34.33;19.33;;;;;;;;;;5052644;28;20112;-72
2021/11/15 13:02:58;;;;;;;44.13;21.02;;;;;;;;;;5052910;28;20052;-71
2021/11/15 13:05:24;;;;;;;47.03;24.50;;;;;;;;;;5052495;28;20029;-71
2021/11/15 13:07:51;;;;;;;54.00;27.13;;;;;;;;;;5052515;28;20041;-72
2021/11/15 13:10:17;;;;;;;41.03;22.67;;;;;;;;;;5052542;28;20033;-71
2021/11/15 13:12:43;;;;;;;43.17;24.90;;;;;;;;;;5052415;28;20033;-71
2021/11/15 13:15:08;;;;;;;46.15;24.05;;;;;;;;;;5052201;28;20105;-72
2021/11/15 13:17:35;;;;;;;48.25;25.05;;;;;;;;;;5052278;28;20041;-71
2021/11/15 13:20:04;;;;;;;49.88;24.98;;;;;;;;;;5052056;28;20036;-71
2021/11/15 13:22:30;;;;;;;43.92;23.63;;;;;;;;;;5053828;28;20037;-71
2021/11/15 13:24:55;;;;;;;41.42;23.17;;;;;;;;;;5055789;28;20476;-72
2021/11/15 13:27:22;;;;;;;43.72;22.98;;;;;;;;;;5055708;28;20048;-71
2021/11/15 13:29:49;;;;;;;52.65;28.60;;;;;;;;;;5055755;28;20536;-72
2021/11/15 13:32:15;;;;;;;53.30;28.60;;;;;;;;;;5055418;28;20127;-72
2021/11/15 13:34:41;;;;;;;50.83;26.92;;;;;;;;;;5055366;28;20183;-71
2021/11/15 13:37:08;;;;;;;56.97;27.77;;;;;;;;;;5037772;28;20452;-71
2021/11/15 13:39:34;;;;;;;52.75;26.88;;;;;;;;;;5055587;28;20021;-72
2021/11/15 13:42:00;;;;;;;48.47;26.00;;;;;;;;;;5055432;28;20143;-71
2021/11/15 13:44:25;;;;;;;54.90;27.83;;;;;;;;;;5055313;28;20041;-71
2021/11/15 13:46:51;;;;;;;79.72;39.40;;;;;;;;;;5055371;28;20064;-72
2021/11/15 13:49:16;;;;;;;56.17;27.17;;;;;;;;;;5055352;28;20063;-72
2021/11/15 13:51:42;;;;;;;65.13;34.33;;;;;;;;;;5055375;28;20167;-71
2021/11/15 13:54:07;;;;;;;28.13;14.25;;;;;;;;;;5037478;28;20029;-72
2021/11/15 13:56:33;;;;;;;53.40;29.80;;;;;;;;;;5055368;28;20037;-72
2021/11/15 13:58:58;;;;;;;57.00;28.05;;;;;;;;;;5055241;28;20029;-71
2021/11/15 14:01:24;;;;;;;67.82;33.90;;;;;;;;;;5037214;28;20041;-71
2021/11/15 14:03:49;;;;;;;59.60;30.48;;;;;;;;;;5054901;28;20040;-72
2021/11/15 14:06:15;;;;;;;62.60;32.22;;;;;;;;;;5055085;28;20401;-72
2021/11/15 14:08:40;;;;;;;55.28;28.83;;;;;;;;;;5037399;28;20029;-71
2021/11/15 14:11:07;;;;;;;52.47;27.98;;;;;;;;;;5055103;28;20130;-71
2021/11/15 14:13:33;;;;;;;58.00;29.48;;;;;;;;;;5054915;28;20480;-71
2021/11/15 14:15:58;;;;;;;47.38;24.98;;;;;;;;;;5054886;28;20121;-72
2021/11/15 14:18:24;;;;;;;73.20;38.45;;;;;;;;;;5054925;28;20392;-71